Time;durP1;ratioP1;P1;durP2;ratioP2;P2;SDS_P1;SDS_P2;PMS_P1;PMS_P2;Temp;Humidity;BMP_temperature;BMP_pressure;BME280_temperature;BME280_humidity;BME280_pressure;Samples;Min_cycle;Max_cycle;Signal;HPM_P1;HPM_P2
2021/06/10 00:01:07;;;;;;;11.63;4.30;;;16.20;99.70;;;;;;5035273;28;20452;-66
2021/06/10 00:03:33;;;;;;;9.80;4.30;;;16.20;99.70;;;;;;5032090;28;20436;-67
2021/06/10 00:05:59;;;;;;;9.60;4.37;;;16.20;99.70;;;;;;5036810;28;20460;-66
2021/06/10 00:08:25;;;;;;;11.43;4.40;;;16.20;99.70;;;;;;5032110;28;20464;-66
2021/06/10 00:10:53;;;;;;;11.50;5.07;;;16.20;99.70;;;;;;5045900;28;20841;-66
2021/06/10 00:13:20;;;;;;;9.70;3.90;;;16.10;99.70;;;;;;5051845;28;20485;-66
2021/06/10 00:15:47;;;;;;;8.73;4.63;;;16.10;99.70;;;;;;5050380;28;20454;-66
2021/06/10 00:18:13;;;;;;;8.63;3.77;;;16.20;99.70;;;;;;5051965;28;20460;-65
2021/06/10 00:20:40;;;;;;;12.47;5.20;;;16.20;99.70;;;;;;5051332;28;20801;-66
2021/06/10 00:23:08;;;;;;;9.30;4.43;;;16.10;99.70;;;;;;5051719;28;20443;-65
2021/06/10 00:25:35;;;;;;;10.80;4.93;;;16.00;99.70;;;;;;5050026;28;20444;-66
2021/06/10 00:28:01;;;;;;;11.33;5.00;;;16.00;99.70;;;;;;5051799;28;20472;-66
2021/06/10 00:30:28;;;;;;;11.53;4.60;;;15.90;99.70;;;;;;5035708;28;20460;-66
2021/06/10 00:32:56;;;;;;;10.63;4.40;;;15.90;99.70;;;;;;5031607;28;20476;-67
2021/06/10 00:35:23;;;;;;;9.90;4.70;;;15.80;99.70;;;;;;5046394;28;20444;-66
2021/06/10 00:37:51;;;;;;;12.70;5.00;;;15.90;99.70;;;;;;5051289;28;20475;-66
2021/06/10 00:40:17;;;;;;;9.60;4.67;;;15.90;99.70;;;;;;5038577;28;20468;-66
2021/06/10 00:42:43;;;;;;;11.07;5.13;;;15.80;99.70;;;;;;5031509;28;20495;-66
2021/06/10 00:45:13;;;;;;;12.33;5.77;;;15.80;99.70;;;;;;5044118;28;20451;-67
2021/06/10 00:47:40;;;;;;;11.87;5.17;;;15.80;99.70;;;;;;5051452;28;20507;-67
2021/06/10 00:50:09;;;;;;;12.13;4.67;;;15.80;99.70;;;;;;5051624;28;20505;-65
2021/06/10 00:52:35;;;;;;;11.87;5.50;;;15.80;99.70;;;;;;5050856;28;20483;-66
2021/06/10 00:55:03;;;;;;;9.50;4.50;;;15.80;99.70;;;;;;5051517;28;20530;-66
2021/06/10 00:57:29;;;;;;;11.70;4.73;;;15.80;99.70;;;;;;5051543;28;20498;-65
2021/06/10 00:59:55;;;;;;;11.93;5.00;;;15.70;99.70;;;;;;5050969;28;20455;-66
2021/06/10 01:02:22;;;;;;;11.47;5.33;;;15.70;99.70;;;;;;5051578;28;20444;-66
2021/06/10 01:04:48;;;;;;;12.00;5.60;;;15.70;99.70;;;;;;5050578;28;20447;-66
2021/06/10 01:07:23;;;;;;;13.60;5.80;;;15.70;99.70;;;;;;5051795;28;20467;-66
2021/06/10 01:09:57;;;;;;;13.37;4.87;;;15.70;99.70;;;;;;5050638;28;20822;-66
2021/06/10 01:12:29;;;;;;;10.73;4.80;;;15.80;99.70;;;;;;5051598;28;20856;-66
2021/06/10 01:15:02;;;;;;;11.90;5.10;;;15.70;99.70;;;;;;5050961;28;20469;-66
2021/06/10 01:17:32;;;;;;;10.87;5.00;;;15.70;99.70;;;;;;5050469;28;20467;-67
2021/06/10 01:20:08;;;;;;;11.03;4.73;;;15.70;99.70;;;;;;5054254;28;20440;-68
2021/06/10 01:22:41;;;;;;;12.50;4.83;;;15.70;99.70;;;;;;5035201;28;20692;-67
2021/06/10 01:25:14;;;;;;;11.70;5.00;;;15.60;99.70;;;;;;5053635;28;20689;-68
2021/06/10 01:27:44;;;;;;;12.77;4.90;;;15.60;99.70;;;;;;5053389;28;20490;-68
2021/06/10 01:30:14;;;;;;;13.67;5.07;;;15.60;99.70;;;;;;5053346;28;20459;-67
2021/06/10 01:32:44;;;;;;;12.77;4.97;;;15.60;99.70;;;;;;5052792;28;20926;-68
2021/06/10 01:35:14;;;;;;;11.40;5.17;;;15.70;99.70;;;;;;5053127;28;20455;-67
2021/06/10 01:37:42;;;;;;;11.47;4.90;;;15.70;99.70;;;;;;5052882;28;20507;-67
2021/06/10 01:40:10;;;;;;;12.30;5.57;;;15.70;99.70;;;;;;5053357;28;20440;-68
2021/06/10 01:42:38;;;;;;;12.93;5.63;;;15.70;99.70;;;;;;5052478;28;20444;-67
2021/06/10 01:45:09;;;;;;;13.63;5.63;;;15.70;99.70;;;;;;5052488;28;20517;-68
2021/06/10 01:47:37;;;;;;;12.77;5.50;;;15.60;99.70;;;;;;5052887;28;20460;-67
2021/06/10 01:50:05;;;;;;;14.00;6.23;;;15.70;99.70;;;;;;5052352;28;20486;-68
2021/06/10 01:52:32;;;;;;;11.23;5.57;;;15.70;99.70;;;;;;5052580;28;20549;-66
2021/06/10 01:54:58;;;;;;;14.17;5.20;;;15.60;99.70;;;;;;5052428;28;20501;-67
2021/06/10 01:57:26;;;;;;;12.47;6.30;;;15.60;99.70;;;;;;5052358;28;20468;-68
2021/06/10 01:59:54;;;;;;;18.90;5.70;;;15.60;99.70;;;;;;5052105;28;20448;-67
2021/06/10 02:02:23;;;;;;;12.20;5.47;;;15.50;99.70;;;;;;5052699;28;20440;-67
2021/06/10 02:04:50;;;;;;;12.20;5.23;;;15.40;99.70;;;;;;5051931;28;20447;-67
2021/06/10 02:07:18;;;;;;;11.43;5.30;;;15.40;99.70;;;;;;5052360;28;20468;-68
2021/06/10 02:09:45;;;;;;;11.97;5.37;;;15.40;99.70;;;;;;5052908;28;20455;-68
2021/06/10 02:12:12;;;;;;;12.03;4.80;;;15.40;99.70;;;;;;5051943;28;20440;-68
2021/06/10 02:14:41;;;;;;;12.73;5.50;;;15.50;99.70;;;;;;5052002;28;20822;-68
2021/06/10 02:17:07;;;;;;;14.50;5.70;;;15.50;99.70;;;;;;5052454;28;20541;-66
2021/06/10 02:19:35;;;;;;;13.40;5.83;;;15.40;99.70;;;;;;5051934;28;20955;-66
2021/06/10 02:22:02;;;;;;;14.10;5.27;;;15.40;99.70;;;;;;5051125;28;20844;-66
2021/06/10 02:24:28;;;;;;;11.40;5.50;;;15.30;99.70;;;;;;5051291;28;20505;-66
2021/06/10 02:26:54;;;;;;;11.73;5.00;;;15.30;99.70;;;;;;5051712;28;20463;-66
2021/06/10 02:29:20;;;;;;;12.00;4.70;;;15.30;99.70;;;;;;5051558;28;20447;-65
2021/06/10 02:31:47;;;;;;;11.97;5.37;;;15.20;99.70;;;;;;5051818;28;20501;-66
2021/06/10 02:34:14;;;;;;;11.43;4.93;;;15.10;99.70;;;;;;5051352;28;20483;-66
2021/06/10 02:36:44;;;;;;;11.50;4.93;;;15.10;99.70;;;;;;5051746;28;20448;-66
2021/06/10 02:39:13;;;;;;;12.00;5.80;;;15.00;99.70;;;;;;5051315;28;20490;-66
2021/06/10 02:41:44;;;;;;;15.43;4.50;;;15.00;99.70;;;;;;5051721;28;20479;-66
2021/06/10 02:44:11;;;;;;;10.53;4.80;;;15.00;99.70;;;;;;5050972;28;20447;-66
2021/06/10 02:46:40;;;;;;;11.73;4.57;;;15.00;99.70;;;;;;5051192;28;20448;-66
2021/06/10 02:49:08;;;;;;;11.53;4.60;;;14.90;99.70;;;;;;5051618;28;20617;-66
2021/06/10 02:51:34;;;;;;;10.70;5.00;;;14.90;99.70;;;;;;5051068;28;20963;-66
2021/06/10 02:54:06;;;;;;;11.07;4.70;;;14.90;99.70;;;;;;5051149;28;20480;-67
2021/06/10 02:56:34;;;;;;;12.00;4.60;;;15.00;99.70;;;;;;5051027;28;20455;-66
2021/06/10 02:59:01;;;;;;;12.97;4.70;;;15.00;99.70;;;;;;5051072;28;20846;-66
2021/06/10 03:01:29;;;;;;;13.07;4.37;;;15.10;99.70;;;;;;5050889;28;20448;-66
2021/06/10 03:03:56;;;;;;;9.70;4.27;;;15.10;99.70;;;;;;5050581;28;20435;-67
2021/06/10 03:06:24;;;;;;;11.20;4.53;;;15.10;99.70;;;;;;5051434;28;20444;-67
2021/06/10 03:08:51;;;;;;;11.90;4.80;;;15.00;99.70;;;;;;5050721;28;20472;-66
2021/06/10 03:11:20;;;;;;;10.77;4.70;;;15.10;99.70;;;;;;5051106;28;20443;-66
2021/06/10 03:13:48;;;;;;;12.10;4.40;;;15.00;99.70;;;;;;5050150;28;20994;-66
2021/06/10 03:16:15;;;;;;;9.93;4.90;;;14.90;99.70;;;;;;5051122;28;20448;-66
2021/06/10 03:18:42;;;;;;;9.43;4.37;;;15.00;99.70;;;;;;5050559;28;20537;-66
2021/06/10 03:21:09;;;;;;;12.57;4.60;;;14.90;99.70;;;;;;5050772;28;20457;-66
2021/06/10 03:23:36;;;;;;;12.30;4.37;;;14.90;99.70;;;;;;5050789;28;20440;-67
2021/06/10 03:26:04;;;;;;;8.83;4.27;;;14.90;99.70;;;;;;5050905;28;20446;-67
2021/06/10 03:28:32;;;;;;;10.53;4.63;;;14.80;99.70;;;;;;5051228;28;20545;-67
2021/06/10 03:30:59;;;;;;;10.57;4.87;;;14.80;99.70;;;;;;5051072;28;20451;-67
2021/06/10 03:33:26;;;;;;;12.60;4.67;;;14.70;99.70;;;;;;5053052;28;20475;-66
2021/06/10 03:35:54;;;;;;;8.77;4.40;;;14.80;99.70;;;;;;5054523;28;20870;-66
2021/06/10 03:38:21;;;;;;;9.50;4.77;;;14.70;99.70;;;;;;5054651;28;20552;-67
2021/06/10 03:40:48;;;;;;;7.67;3.73;;;14.70;99.70;;;;;;5054312;28;20969;-66
2021/06/10 03:43:16;;;;;;;7.80;3.50;;;14.60;99.70;;;;;;5054260;28;20961;-66
2021/06/10 03:45:44;;;;;;;11.67;5.60;;;14.60;99.70;;;;;;5055029;28;20470;-66
2021/06/10 03:48:11;;;;;;;10.47;4.50;;;14.70;99.70;;;;;;5054479;28;20475;-66
2021/06/10 03:50:37;;;;;;;10.90;5.10;;;14.70;99.70;;;;;;5054962;28;20448;-67
2021/06/10 03:53:05;;;;;;;8.53;3.80;;;14.70;99.70;;;;;;5053882;28;20522;-67
2021/06/10 03:55:32;;;;;;;12.57;5.20;;;14.70;99.70;;;;;;5054283;28;20450;-67
2021/06/10 03:57:58;;;;;;;8.70;4.33;;;14.70;99.70;;;;;;5054428;28;20521;-67
2021/06/10 04:00:24;;;;;;;9.97;4.00;;;14.60;99.70;;;;;;5054428;28;20790;-67
2021/06/10 04:02:52;;;;;;;9.23;4.80;;;14.70;99.70;;;;;;5054434;28;20822;-67
2021/06/10 04:05:18;;;;;;;10.40;4.40;;;14.70;99.70;;;;;;5054094;28;20447;-67
2021/06/10 04:07:45;;;;;;;10.80;5.17;;;14.70;99.70;;;;;;5054436;28;20468;-67
2021/06/10 04:10:12;;;;;;;8.57;4.37;;;14.70;99.70;;;;;;5053842;28;20452;-67
2021/06/10 04:12:38;;;;;;;14.67;4.50;;;14.80;99.70;;;;;;5054183;28;20537;-67
2021/06/10 04:15:06;;;;;;;13.03;5.20;;;14.90;99.70;;;;;;5054443;28;20447;-67
2021/06/10 04:17:32;;;;;;;13.03;5.60;;;14.80;99.70;;;;;;5054348;28;20916;-67
2021/06/10 04:19:59;;;;;;;14.00;4.70;;;14.80;99.70;;;;;;5053980;28;20443;-67
2021/06/10 04:22:25;;;;;;;12.97;5.57;;;14.90;99.70;;;;;;5053093;28;20798;-67
2021/06/10 04:24:52;;;;;;;11.37;4.50;;;15.00;99.70;;;;;;5052779;28;20973;-67
2021/06/10 04:27:18;;;;;;;12.03;4.90;;;15.00;99.70;;;;;;5053633;28;20475;-67
2021/06/10 04:29:44;;;;;;;16.03;5.80;;;15.00;99.70;;;;;;5054159;28;20478;-67
2021/06/10 04:32:10;;;;;;;11.40;4.00;;;15.00;99.70;;;;;;5053443;28;20446;-67
2021/06/10 04:34:36;;;;;;;11.97;4.80;;;15.10;99.70;;;;;;5052919;28;20476;-67
2021/06/10 04:37:04;;;;;;;7.23;3.73;;;15.10;99.70;;;;;;5052293;28;20472;-67
2021/06/10 04:39:30;;;;;;;13.40;4.83;;;15.10;99.70;;;;;;5053420;28;20471;-67
2021/06/10 04:41:57;;;;;;;9.70;4.43;;;14.90;99.70;;;;;;5053222;28;20436;-67
2021/06/10 04:44:23;;;;;;;16.43;5.50;;;14.90;99.70;;;;;;5053322;28;20444;-67
2021/06/10 04:46:50;;;;;;;11.50;4.60;;;15.10;99.70;;;;;;5054104;28;20939;-67
2021/06/10 04:49:16;;;;;;;9.40;4.40;;;15.10;99.70;;;;;;5053906;28;20835;-67
2021/06/10 04:51:42;;;;;;;9.33;4.23;;;15.10;99.70;;;;;;5054159;28;20453;-67
2021/06/10 04:54:10;;;;;;;11.17;5.57;;;15.20;99.70;;;;;;5053545;28;20471;-67
2021/06/10 04:56:36;;;;;;;9.07;4.27;;;15.20;99.70;;;;;;5054063;28;20961;-67
2021/06/10 04:59:02;;;;;;;9.23;4.03;;;15.10;99.70;;;;;;5053390;28;20443;-67
2021/06/10 05:01:28;;;;;;;12.47;4.73;;;15.20;99.70;;;;;;5050886;28;20498;-67
2021/06/10 05:03:55;;;;;;;9.60;4.40;;;15.30;99.70;;;;;;5052511;28;20681;-66
2021/06/10 05:06:21;;;;;;;8.17;4.77;;;15.30;99.70;;;;;;5050730;28;20448;-66
2021/06/10 05:08:47;;;;;;;10.70;4.40;;;15.30;99.70;;;;;;5047972;28;20474;-67
2021/06/10 05:11:15;;;;;;;9.40;4.53;;;15.30;99.70;;;;;;5051145;28;20444;-67
2021/06/10 05:13:41;;;;;;;11.77;4.70;;;15.50;99.70;;;;;;5053069;28;20548;-67
2021/06/10 05:16:07;;;;;;;12.60;5.23;;;15.50;99.70;;;;;;5050544;28;20439;-68
2021/06/10 05:18:34;;;;;;;9.80;4.90;;;15.50;99.70;;;;;;5053249;28;20533;-67
2021/06/10 05:21:00;;;;;;;10.43;4.43;;;15.40;99.70;;;;;;5052898;28;20440;-67
2021/06/10 05:23:27;;;;;;;12.20;5.20;;;15.50;99.70;;;;;;5052934;28;20436;-68
2021/06/10 05:25:53;;;;;;;10.00;4.33;;;15.70;99.70;;;;;;5053330;28;20683;-67
2021/06/10 05:28:20;;;;;;;10.90;4.47;;;15.90;99.70;;;;;;5053185;28;20464;-67
2021/06/10 05:30:47;;;;;;;7.87;4.03;;;15.90;99.70;;;;;;5052685;28;20962;-67
2021/06/10 05:33:13;;;;;;;13.80;4.67;;;15.90;99.70;;;;;;5051202;28;21021;-67
2021/06/10 05:35:39;;;;;;;10.27;4.13;;;16.00;99.70;;;;;;5039955;28;20445;-68
2021/06/10 05:38:05;;;;;;;10.80;4.60;;;15.90;99.70;;;;;;5029394;28;20487;-67
2021/06/10 05:40:31;;;;;;;8.67;4.10;;;16.00;99.70;;;;;;5033186;28;20444;-67
2021/06/10 05:42:58;;;;;;;11.27;4.90;;;16.20;99.70;;;;;;5032222;28;20877;-67
2021/06/10 05:45:25;;;;;;;8.17;4.40;;;16.30;99.70;;;;;;5043379;28;20857;-68
2021/06/10 05:47:51;;;;;;;9.30;4.10;;;16.30;99.70;;;;;;5051096;28;20460;-68
2021/06/10 05:50:18;;;;;;;10.57;4.37;;;16.30;99.70;;;;;;5040858;28;20744;-68
2021/06/10 05:52:44;;;;;;;14.97;4.93;;;16.50;99.70;;;;;;5031133;28;20456;-68
2021/06/10 05:55:11;;;;;;;12.20;4.97;;;16.50;99.70;;;;;;5041785;28;20440;-67
2021/06/10 05:57:37;;;;;;;8.83;4.40;;;16.70;99.70;;;;;;5051130;28;20467;-68
2021/06/10 06:00:06;;;;;;;11.10;4.60;;;16.80;99.70;;;;;;5051238;28;20793;-67
2021/06/10 06:02:33;;;;;;;11.33;5.47;;;17.00;99.70;;;;;;5051124;28;20447;-66
2021/06/10 06:05:00;;;;;;;11.33;5.17;;;17.10;99.70;;;;;;5050945;28;20471;-68
2021/06/10 06:07:26;;;;;;;10.33;4.53;;;17.10;99.70;;;;;;5050739;28;20468;-68
2021/06/10 06:09:52;;;;;;;12.53;5.13;;;17.20;99.70;;;;;;5051502;28;20451;-68
2021/06/10 06:12:21;;;;;;;11.77;5.57;;;17.30;99.70;;;;;;5051639;28;20449;-67
2021/06/10 06:14:48;;;;;;;8.60;4.30;;;17.30;99.70;;;;;;5043699;28;20545;-67
2021/06/10 06:17:15;;;;;;;13.47;5.10;;;17.40;99.70;;;;;;5058131;28;20707;-68
2021/06/10 06:19:43;;;;;;;12.70;5.30;;;17.70;99.70;;;;;;5051179;28;20443;-68
2021/06/10 06:22:10;;;;;;;12.77;5.23;;;17.80;99.70;;;;;;5045154;28;20470;-68
2021/06/10 06:24:40;;;;;;;9.60;4.40;;;18.20;99.70;;;;;;5041367;28;20433;-68
2021/06/10 06:27:07;;;;;;;14.23;5.10;;;18.80;99.70;;;;;;5040832;28;20482;-68
2021/06/10 06:29:34;;;;;;;8.77;4.30;;;19.40;99.70;;;;;;5041596;28;20448;-68
2021/06/10 06:32:00;;;;;;;9.97;5.17;;;19.90;99.70;;;;;;5040257;28;20444;-68
2021/06/10 06:34:26;;;;;;;9.63;4.47;;;20.50;99.70;;;;;;5039888;28;20471;-68
2021/06/10 06:36:54;;;;;;;7.97;4.40;;;21.30;99.70;;;;;;5042442;28;20471;-69
2021/06/10 06:39:21;;;;;;;8.20;4.10;;;21.40;99.70;;;;;;5041889;28;20474;-68
2021/06/10 06:41:51;;;;;;;9.93;4.43;;;21.90;99.70;;;;;;5045121;28;20450;-68
2021/06/10 06:44:17;;;;;;;9.80;4.50;;;22.00;99.70;;;;;;5040686;28;20451;-67
2021/06/10 06:46:43;;;;;;;8.93;4.83;;;22.20;99.70;;;;;;5043380;28;20224;-67
2021/06/10 06:49:09;;;;;;;7.23;4.63;;;22.30;99.70;;;;;;5044364;28;20196;-67
2021/06/10 06:51:35;;;;;;;7.70;4.43;;;22.50;99.70;;;;;;5052945;28;20203;-67
2021/06/10 06:54:03;;;;;;;8.20;4.37;;;22.60;99.70;;;;;;5049687;28;20217;-67
2021/06/10 06:56:32;;;;;;;7.90;4.47;;;22.80;99.70;;;;;;5038071;28;20201;-68
2021/06/10 06:58:59;;;;;;;7.20;4.23;;;23.00;99.70;;;;;;5041187;28;20197;-68
2021/06/10 07:01:25;;;;;;;7.83;4.53;;;22.90;99.70;;;;;;5051599;28;20196;-67
2021/06/10 07:03:51;;;;;;;8.30;4.53;;;22.40;99.70;;;;;;5052229;28;20205;-68
2021/06/10 07:06:21;;;;;;;8.77;4.57;;;22.50;99.70;;;;;;5053705;28;20679;-68
2021/06/10 07:08:47;;;;;;;8.47;4.80;;;22.40;99.70;;;;;;5056065;28;20463;-67
2021/06/10 07:11:15;;;;;;;7.90;4.30;;;22.50;99.70;;;;;;5057918;28;20453;-68
2021/06/10 07:13:41;;;;;;;8.07;4.83;;;22.50;99.70;;;;;;5057058;28;20479;-67
2021/06/10 07:16:07;;;;;;;7.13;4.00;;;22.50;99.70;;;;;;5056892;28;20454;-67
2021/06/10 07:18:33;;;;;;;8.70;4.30;;;22.10;99.70;;;;;;5054754;28;20986;-68
2021/06/10 07:21:00;;;;;;;8.73;4.13;;;21.70;99.70;;;;;;5056438;28;20534;-68
2021/06/10 07:23:27;;;;;;;8.63;4.57;;;21.70;99.70;;;;;;5055989;28;20439;-68
2021/06/10 07:25:54;;;;;;;8.87;5.10;;;21.90;99.70;;;;;;5046960;28;20443;-68
2021/06/10 07:28:21;;;;;;;7.90;4.03;;;21.80;99.70;;;;;;5048383;28;20872;-67
2021/06/10 07:30:48;;;;;;;10.33;4.57;;;21.60;99.70;;;;;;5051304;28;20517;-68
2021/06/10 07:33:15;;;;;;;9.80;4.80;;;21.70;99.70;;;;;;5052938;28;20479;-67
2021/06/10 07:35:42;;;;;;;7.97;4.30;;;21.60;99.70;;;;;;5058098;28;20454;-68
2021/06/10 07:38:09;;;;;;;8.20;4.33;;;21.70;99.70;;;;;;5057117;28;20483;-67
2021/06/10 07:40:36;;;;;;;9.27;5.13;;;21.60;99.70;;;;;;5058817;28;20895;-67
2021/06/10 07:43:02;;;;;;;7.43;4.10;;;21.60;99.70;;;;;;5057598;28;20443;-68
2021/06/10 07:45:31;;;;;;;9.80;4.77;;;21.80;99.70;;;;;;5058362;28;20443;-67
2021/06/10 07:47:58;;;;;;;11.77;4.70;;;21.60;99.70;;;;;;5056945;28;21008;-69
2021/06/10 07:50:24;;;;;;;10.43;4.50;;;21.70;99.70;;;;;;5057946;28;20901;-68
2021/06/10 07:52:51;;;;;;;10.87;4.97;;;21.80;99.70;;;;;;5055827;28;21004;-68
2021/06/10 07:55:19;;;;;;;9.03;4.40;;;21.80;99.70;;;;;;5056180;28;20443;-68
2021/06/10 07:57:46;;;;;;;9.67;4.30;;;21.70;99.70;;;;;;5055478;28;20463;-68
2021/06/10 08:00:13;;;;;;;9.17;4.47;;;21.90;99.70;;;;;;5055826;28;20447;-68
2021/06/10 08:02:40;;;;;;;9.90;4.40;;;21.90;99.70;;;;;;5056378;28;20448;-68
2021/06/10 08:05:08;;;;;;;8.83;4.40;;;21.90;99.70;;;;;;5056587;28;20451;-68
2021/06/10 08:07:34;;;;;;;8.37;4.10;;;21.90;99.70;;;;;;5055837;28;21009;-68
2021/06/10 08:10:00;;;;;;;9.20;4.47;;;22.00;99.70;;;;;;5056367;28;20554;-68
2021/06/10 08:12:26;;;;;;;9.30;5.03;;;22.20;99.70;;;;;;5056552;28;20490;-68
2021/06/10 08:14:53;;;;;;;11.77;4.87;;;22.10;99.70;;;;;;5055584;28;20485;-69
2021/06/10 08:17:19;;;;;;;10.77;5.10;;;22.20;99.70;;;;;;5055223;28;20487;-68
2021/06/10 08:19:46;;;;;;;7.33;4.20;;;22.10;99.70;;;;;;5055531;28;20929;-68
2021/06/10 08:22:12;;;;;;;11.27;4.30;;;22.00;99.70;;;;;;5057638;28;20477;-68
2021/06/10 08:24:39;;;;;;;10.07;4.50;;;22.00;99.70;;;;;;5057232;28;20443;-68
2021/06/10 08:27:07;;;;;;;9.87;5.00;;;22.10;99.70;;;;;;5056519;28;20472;-68
2021/06/10 08:29:34;;;;;;;10.07;5.10;;;22.10;99.70;;;;;;5053741;28;20574;-68
2021/06/10 08:32:00;;;;;;;11.30;5.70;;;22.00;99.70;;;;;;5035857;28;20445;-68
2021/06/10 08:34:26;;;;;;;8.73;4.83;;;22.00;99.70;;;;;;5044624;28;20510;-65
2021/06/10 08:36:54;;;;;;;7.87;4.43;;;22.20;99.70;;;;;;5057344;28;20493;-68
2021/06/10 08:39:20;;;;;;;9.93;5.00;;;22.40;99.70;;;;;;5055307;28;20501;-68
2021/06/10 08:41:46;;;;;;;10.23;4.87;;;22.00;99.70;;;;;;5056475;28;20444;-68
2021/06/10 08:44:13;;;;;;;14.00;4.70;;;22.00;99.70;;;;;;5056602;28;20440;-68
2021/06/10 08:46:39;;;;;;;9.90;4.73;;;22.00;99.70;;;;;;5055801;28;20461;-68
2021/06/10 08:49:06;;;;;;;9.07;4.80;;;22.00;99.70;;;;;;5056912;28;20545;-68
2021/06/10 08:51:33;;;;;;;8.73;4.67;;;22.10;99.70;;;;;;5056524;28;20922;-68
2021/06/10 08:54:01;;;;;;;9.97;5.00;;;22.30;99.70;;;;;;5056316;28;20533;-68
2021/06/10 08:56:30;;;;;;;8.67;4.20;;;22.10;99.70;;;;;;5055998;28;20444;-68
2021/06/10 08:58:56;;;;;;;8.67;4.53;;;22.40;99.70;;;;;;5055478;28;20458;-68
2021/06/10 09:01:23;;;;;;;10.33;5.07;;;22.60;99.70;;;;;;5055153;28;20448;-68
2021/06/10 09:03:49;;;;;;;8.57;4.67;;;22.50;99.70;;;;;;5056249;28;20501;-68
2021/06/10 09:06:17;;;;;;;10.30;5.27;;;22.50;99.70;;;;;;5055770;28;20876;-68
2021/06/10 09:08:45;;;;;;;10.37;5.00;;;22.60;99.70;;;;;;5055850;28;20463;-68
2021/06/10 09:11:15;;;;;;;8.83;4.77;;;22.60;99.70;;;;;;5041048;28;20461;-68
2021/06/10 09:13:45;;;;;;;8.00;4.40;;;22.70;99.70;;;;;;5052412;28;20479;-68
2021/06/10 09:16:23;;;;;;;9.23;4.43;;;22.70;99.70;;;;;;5056302;28;20448;-68
2021/06/10 09:18:56;;;;;;;9.27;4.70;;;22.80;99.70;;;;;;5054812;28;21033;-68
2021/06/10 09:21:28;;;;;;;8.80;4.70;;;22.80;99.70;;;;;;5056012;28;20456;-68
2021/06/10 09:23:54;;;;;;;8.17;4.50;;;22.60;99.70;;;;;;5055143;28;20440;-68
2021/06/10 09:26:23;;;;;;;8.20;4.47;;;22.70;99.70;;;;;;5055133;28;20454;-67
2021/06/10 09:29:01;;;;;;;7.30;3.80;;;22.90;99.70;;;;;;5055428;28;20467;-66
2021/06/10 09:31:32;;;;;;;8.33;4.13;;;23.20;99.70;;;;;;5036069;28;20456;-67
2021/06/10 09:33:59;;;;;;;8.40;4.80;;;23.70;99.70;;;;;;5054695;28;20569;-67
2021/06/10 09:36:25;;;;;;;7.93;4.37;;;24.10;99.70;;;;;;5054752;28;20610;-67
2021/06/10 09:39:10;;;;;;;7.40;4.10;;;24.20;99.70;;;;;;5055096;28;20258;-67
2021/06/10 09:42:02;;;;;;;8.07;4.47;;;24.40;99.70;;;;;;5034862;28;20211;-67
2021/06/10 09:44:42;;;;;;;7.68;4.07;;;24.60;99.70;;;;;;5072899;28;20207;-67
2021/06/10 09:47:09;;;;;;;6.50;4.22;;;25.20;99.70;;;;;;5073943;28;20227;-67
2021/06/10 09:49:36;;;;;;;8.55;4.70;;;25.30;99.70;;;;;;5075343;28;20200;-67
2021/06/10 09:52:02;;;;;;;9.68;5.03;;;26.00;98.80;;;;;;5066175;28;20687;-67
2021/06/10 09:54:42;;;;;;;9.10;4.97;;;25.70;99.70;;;;;;5055012;28;20223;-67
2021/06/10 09:57:13;;;;;;;6.82;4.20;;;26.40;97.20;;;;;;5056069;28;20227;-67
2021/06/10 09:59:44;;;;;;;6.93;4.72;;;26.50;96.90;;;;;;5052958;28;20667;-67
2021/06/10 10:02:22;;;;;;;8.38;4.60;;;26.50;95.30;;;;;;5056590;28;20196;-67
2021/06/10 10:05:08;;;;;;;11.15;4.65;;;26.40;97.20;;;;;;5056216;28;20195;-67
2021/06/10 10:07:37;;;;;;;9.35;5.25;;;26.10;99.20;;;;;;5055981;28;20236;-67
2021/06/10 10:10:06;;;;;;;7.78;4.80;;;26.40;98.20;;;;;;5055898;28;20619;-67
2021/06/10 10:12:38;;;;;;;9.57;5.20;;;26.50;98.40;;;;;;5056560;28;20488;-67
2021/06/10 10:15:06;;;;;;;7.85;4.57;;;26.60;98.30;;;;;;5056207;28;20293;-67
2021/06/10 10:17:32;;;;;;;9.43;5.05;;;26.20;98.50;;;;;;5056850;28;20224;-67
2021/06/10 10:19:58;;;;;;;10.40;5.80;;;26.00;99.70;;;;;;5056031;28;20197;-67
2021/06/10 10:22:25;;;;;;;11.50;5.70;;;25.80;99.20;;;;;;5056077;28;20212;-67
2021/06/10 10:24:53;;;;;;;9.00;4.97;;;25.20;99.70;;;;;;5066960;28;20226;-67
2021/06/10 10:27:21;;;;;;;8.80;5.10;;;24.90;99.70;;;;;;5062778;28;20213;-67
2021/06/10 10:29:49;;;;;;;11.43;6.23;;;24.80;99.70;;;;;;5050773;28;20290;-67
2021/06/10 10:32:22;;;;;;;12.00;5.50;;;24.50;99.70;;;;;;5035853;28;20205;-67
2021/06/10 10:34:48;;;;;;;11.80;5.60;;;24.30;99.70;;;;;;5036084;28;20479;-68
2021/06/10 10:37:19;;;;;;;10.83;5.40;;;24.20;99.70;;;;;;5054960;28;20463;-67
2021/06/10 10:39:47;;;;;;;15.97;6.43;;;24.20;99.70;;;;;;5050955;28;20439;-67
2021/06/10 10:42:28;;;;;;;10.40;6.00;;;24.20;99.70;;;;;;5039155;28;20451;-65
2021/06/10 10:47:59;;;;;;;12.17;6.03;;;23.90;99.70;;;;;;5151414;27;20320;-69
2021/06/10 10:50:34;;;;;;;11.33;5.83;;;23.90;99.70;;;;;;5151957;27;20823;-69
2021/06/10 10:53:00;;;;;;;12.70;5.70;;;24.00;99.70;;;;;;5148484;27;20977;-69
2021/06/10 10:55:30;;;;;;;8.50;5.03;;;24.10;99.70;;;;;;5129680;27;20428;-69
2021/06/10 10:58:16;;;;;;;11.93;5.57;;;24.40;99.70;;;;;;5130768;28;20883;-69
2021/06/10 11:00:54;;;;;;;10.43;5.67;;;24.50;99.70;;;;;;5130441;28;20934;-70
2021/06/10 11:03:33;;;;;;;12.30;6.20;;;24.60;99.70;;;;;;5130663;28;20444;-69
2021/06/10 11:06:34;;;;;;;11.13;5.30;;;24.80;99.70;;;;;;5129137;28;20471;-69
2021/06/10 11:09:07;;;;;;;12.60;5.93;;;24.80;99.70;;;;;;5130990;27;20589;-69
2021/06/10 11:11:53;;;;;;;11.10;5.90;;;24.70;99.70;;;;;;5131043;27;20451;-69
2021/06/10 11:14:52;;;;;;;12.03;5.77;;;24.60;99.70;;;;;;5130937;28;20439;-69
2021/06/10 11:17:24;;;;;;;15.50;6.30;;;24.70;99.70;;;;;;5066967;28;20469;-69
2021/06/10 11:19:55;;;;;;;12.43;5.70;;;24.10;99.70;;;;;;5119278;27;20459;-69
2021/06/10 11:22:37;;;;;;;11.03;5.90;;;24.30;99.50;;;;;;5130564;28;20440;-69
2021/06/10 11:25:06;;;;;;;13.73;6.27;;;24.40;99.30;;;;;;5130019;28;20823;-69
2021/06/10 11:27:37;;;;;;;12.17;5.77;;;24.40;99.70;;;;;;5130322;28;20487;-69
2021/06/10 11:30:16;;;;;;;10.80;5.77;;;24.70;99.70;;;;;;5130484;28;20443;-69
2021/06/10 11:33:00;;;;;;;14.03;6.00;;;24.60;99.70;;;;;;5130301;27;20946;-69
2021/06/10 11:35:28;;;;;;;11.57;5.80;;;23.90;99.70;;;;;;5129890;27;20459;-68
2021/06/10 11:37:56;;;;;;;13.70;5.07;;;23.90;99.70;;;;;;5130418;27;20451;-69
2021/06/10 11:40:23;;;;;;;11.67;5.80;;;24.10;99.70;;;;;;5130482;27;20436;-69
2021/06/10 11:42:50;;;;;;;9.63;4.73;;;24.50;99.70;;;;;;5130038;27;20440;-69
2021/06/10 11:45:20;;;;;;;14.10;6.20;;;24.70;99.70;;;;;;5130216;28;20444;-69
2021/06/10 11:47:47;;;;;;;11.50;6.00;;;24.70;99.70;;;;;;5129632;27;20522;-69
2021/06/10 11:50:27;;;;;;;10.83;5.43;;;24.60;99.70;;;;;;5130071;28;20443;-69
2021/06/10 11:52:56;;;;;;;12.30;6.07;;;24.80;99.70;;;;;;5129926;28;20958;-69
2021/06/10 11:55:23;;;;;;;13.03;5.40;;;24.70;99.70;;;;;;5128749;28;20436;-70
2021/06/10 11:57:54;;;;;;;11.03;5.90;;;24.60;99.70;;;;;;5124481;28;20460;-69
2021/06/10 12:00:26;;;;;;;12.07;5.70;;;24.30;99.70;;;;;;5116406;28;20527;-69
2021/06/10 12:02:55;;;;;;;11.60;5.80;;;24.10;99.70;;;;;;5116316;28;20445;-69
2021/06/10 12:05:22;;;;;;;12.50;6.00;;;23.90;99.70;;;;;;5116869;28;20440;-69
2021/06/10 12:07:48;;;;;;;13.20;6.73;;;23.80;99.70;;;;;;5115269;28;20484;-69
2021/06/10 12:10:18;;;;;;;11.40;5.60;;;23.70;99.70;;;;;;5113318;28;20568;-69
2021/06/10 12:12:46;;;;;;;10.30;5.57;;;23.80;99.70;;;;;;5115011;28;20447;-69
2021/06/10 12:15:33;;;;;;;11.93;5.40;;;23.90;99.70;;;;;;5116793;28;20630;-69
2021/06/10 12:18:01;;;;;;;11.50;5.37;;;24.10;99.70;;;;;;5116022;28;20963;-69
2021/06/10 12:20:28;;;;;;;11.30;5.63;;;24.30;99.70;;;;;;5116043;28;20939;-69
2021/06/10 12:22:55;;;;;;;9.37;5.23;;;24.40;99.70;;;;;;5114585;28;20645;-69
2021/06/10 12:25:25;;;;;;;12.23;5.60;;;24.40;98.10;;;;;;5114247;28;20437;-69
2021/06/10 12:27:52;;;;;;;9.60;5.20;;;24.50;99.30;;;;;;5113841;28;20488;-69
2021/06/10 12:30:23;;;;;;;11.27;5.40;;;24.60;99.70;;;;;;5114278;28;20842;-69
2021/06/10 12:32:49;;;;;;;10.17;5.30;;;24.80;97.70;;;;;;5114412;28;20436;-69
2021/06/10 12:35:20;;;;;;;11.30;5.70;;;24.60;98.60;;;;;;5115623;28;20490;-69
2021/06/10 12:37:51;;;;;;;11.13;5.87;;;24.40;97.90;;;;;;5101136;28;20463;-69
2021/06/10 12:40:17;;;;;;;9.60;4.97;;;24.30;99.70;;;;;;5094618;28;20445;-69
2021/06/10 12:43:06;;;;;;;8.10;5.07;;;24.30;99.70;;;;;;5095712;28;20442;-69
2021/06/10 12:45:33;;;;;;;8.47;4.97;;;24.30;99.20;;;;;;5095476;28;20437;-69
2021/06/10 12:47:59;;;;;;;9.83;4.83;;;24.30;99.70;;;;;;5112679;28;20963;-69
2021/06/10 12:50:25;;;;;;;9.13;4.97;;;24.20;99.00;;;;;;5113127;28;20444;-70